createdAt,value
2018-12-22T15:32:11.680Z,1007.37
2018-12-22T15:33:11.680Z,1007.39
2018-12-22T15:34:11.671Z,1007.38
2018-12-22T15:35:11.639Z,1007.41
2018-12-22T15:36:11.651Z,1007.35
2018-12-22T15:37:11.636Z,1007.36
2018-12-22T15:38:18.389Z,1007.37
2018-12-22T15:39:12.921Z,1007.41
2018-12-22T15:40:11.753Z,1007.45
2018-12-22T15:41:11.857Z,1007.50
2018-12-22T15:42:12.388Z,1007.49
2018-12-22T15:43:11.619Z,1007.51
2018-12-22T15:44:11.791Z,1007.55
2018-12-22T15:45:11.666Z,1007.45
2018-12-22T15:46:11.580Z,1007.50
2018-12-22T15:47:13.251Z,1007.49
2018-12-22T15:48:12.237Z,1007.46
2018-12-22T15:49:11.545Z,1007.44
2018-12-22T15:50:11.541Z,1007.43
2018-12-22T15:51:11.598Z,1007.49
2018-12-22T15:52:12.264Z,1007.44
2018-12-22T15:53:11.642Z,1007.45
2018-12-22T15:54:14.698Z,1007.44
2018-12-22T15:55:12.115Z,1007.42
2018-12-22T15:56:11.447Z,1007.44
2018-12-22T15:57:12.264Z,1007.49
2018-12-22T15:58:12.242Z,1007.50
2018-12-22T15:59:12.163Z,1007.49
2018-12-22T16:00:12.411Z,1007.47
2018-12-22T16:01:11.464Z,1007.51
2018-12-22T16:02:11.380Z,1007.56
2018-12-22T16:03:14.346Z,1007.60
2018-12-22T16:04:11.440Z,1007.56
2018-12-22T16:05:11.351Z,1007.60
2018-12-22T16:06:11.328Z,1007.60
2018-12-22T16:07:11.331Z,1007.62
2018-12-22T16:08:11.320Z,1007.62
2018-12-22T16:09:11.464Z,1007.63
2018-12-22T16:10:11.311Z,1007.63
2018-12-22T16:11:11.261Z,1007.63
2018-12-22T16:12:11.363Z,1007.63
2018-12-22T16:13:11.317Z,1007.67
2018-12-22T16:14:11.342Z,1007.66
2018-12-22T16:15:11.312Z,1007.64
2018-12-22T16:16:11.240Z,1007.58
2018-12-22T16:17:11.256Z,1007.61
2018-12-22T16:18:11.200Z,1007.67
2018-12-22T16:19:11.224Z,1007.65
2018-12-22T16:20:11.177Z,1007.63
2018-12-22T16:21:11.154Z,1007.67
2018-12-22T16:22:11.173Z,1007.67
2018-12-22T16:23:11.752Z,1007.65
2018-12-22T16:24:12.346Z,1007.65
2018-12-22T16:25:11.689Z,1007.65
2018-12-22T16:26:11.830Z,1007.67
2018-12-22T16:27:11.214Z,1007.71
2018-12-22T16:28:11.188Z,1007.70
2018-12-22T16:29:11.180Z,1007.71
2018-12-22T16:30:11.082Z,1007.67
2018-12-22T16:31:11.060Z,1007.69
2018-12-22T16:32:11.103Z,1007.68
2018-12-22T16:33:11.027Z,1007.68
2018-12-22T16:34:11.050Z,1007.69
2018-12-22T16:35:11.049Z,1007.69
2018-12-22T16:36:11.030Z,1007.68
2018-12-22T16:37:11.041Z,1007.69
2018-12-22T16:38:11.154Z,1007.67
2018-12-22T16:39:11.184Z,1007.67
2018-12-22T16:40:11.023Z,1007.67
2018-12-22T16:41:11.747Z,1007.62
2018-12-22T16:42:10.978Z,1007.69
2018-12-22T16:43:11.743Z,1007.65
2018-12-22T16:44:10.911Z,1007.58
2018-12-22T16:45:10.937Z,1007.54
2018-12-22T16:46:10.957Z,1007.59
2018-12-22T16:47:10.873Z,1007.54
2018-12-22T16:48:10.866Z,1007.56
2018-12-22T16:49:10.917Z,1007.56
2018-12-22T16:50:10.869Z,1007.59
2018-12-22T16:51:10.946Z,1007.58
2018-12-22T16:52:10.894Z,1007.58
2018-12-22T16:53:10.811Z,1007.60
2018-12-22T16:54:11.758Z,1007.61
2018-12-22T16:55:10.989Z,1007.58
2018-12-22T16:56:10.781Z,1007.61
2018-12-22T16:57:10.841Z,1007.62
2018-12-22T16:58:10.831Z,1007.59
2018-12-22T16:59:11.315Z,1007.62
2018-12-22T17:00:11.005Z,1007.60
2018-12-22T17:01:10.726Z,1007.59
2018-12-22T17:02:10.712Z,1007.62
2018-12-22T17:03:11.209Z,1007.67
2018-12-22T17:04:10.734Z,1007.65
2018-12-22T17:05:10.691Z,1007.67
2018-12-22T17:06:10.711Z,1007.71
2018-12-22T17:07:10.676Z,1007.72
2018-12-22T17:08:10.747Z,1007.77
2018-12-22T17:09:11.131Z,1007.79
2018-12-22T17:10:10.632Z,1007.82
2018-12-22T17:11:10.630Z,1007.87
2018-12-22T17:12:10.605Z,1007.86
2018-12-22T17:13:10.604Z,1007.86
2018-12-22T17:14:10.586Z,1007.87
2018-12-22T17:15:10.637Z,1007.89
2018-12-22T17:16:10.608Z,1007.90
2018-12-22T17:17:10.599Z,1007.93
2018-12-22T17:18:10.571Z,1007.90
2018-12-22T17:19:10.533Z,1007.92
2018-12-22T17:20:10.526Z,1007.89
2018-12-22T17:21:10.559Z,1007.91
2018-12-22T17:22:10.507Z,1007.92
2018-12-22T17:23:10.500Z,1007.89
2018-12-22T17:24:10.498Z,1007.90
2018-12-22T17:25:10.501Z,1007.85
2018-12-22T17:26:10.467Z,1007.93
2018-12-22T17:27:10.444Z,1007.92
2018-12-22T17:28:10.429Z,1007.96
2018-12-22T17:29:11.245Z,1007.99
2018-12-22T17:30:10.463Z,1008.00
2018-12-22T17:31:10.413Z,1007.97
2018-12-22T17:32:10.399Z,1007.94
2018-12-22T17:33:18.678Z,1007.91
2018-12-22T17:34:11.377Z,1007.92
2018-12-22T17:35:10.360Z,1007.91
2018-12-22T17:36:10.371Z,1007.91
2018-12-22T17:37:10.345Z,1007.92
2018-12-22T17:38:10.332Z,1007.96
2018-12-22T17:39:10.349Z,1007.95
2018-12-22T17:40:10.337Z,1007.92
2018-12-22T17:41:10.320Z,1007.95
2018-12-22T17:42:10.298Z,1007.98
2018-12-22T17:43:10.279Z,1007.99
2018-12-22T17:44:10.271Z,1008.01
2018-12-22T17:45:10.354Z,1008.02
2018-12-22T17:46:10.261Z,1008.00
2018-12-22T17:47:10.278Z,1008.04
2018-12-22T17:48:10.250Z,1008.03
2018-12-22T17:49:10.281Z,1008.07
2018-12-22T17:50:10.204Z,1008.13
2018-12-22T17:51:10.222Z,1008.11
2018-12-22T17:52:10.183Z,1008.09
2018-12-22T17:53:10.177Z,1008.12
2018-12-22T17:54:10.158Z,1008.11
2018-12-22T17:55:10.158Z,1008.07
2018-12-22T17:56:10.153Z,1008.11
2018-12-22T17:57:10.184Z,1008.11
2018-12-22T17:58:10.162Z,1008.12
2018-12-22T17:59:10.141Z,1008.08
2018-12-22T18:00:10.092Z,1008.10
2018-12-22T18:01:10.086Z,1008.10
2018-12-22T18:02:10.157Z,1008.06
2018-12-22T18:03:10.084Z,1008.09
2018-12-22T18:04:10.059Z,1008.07
2018-12-22T18:05:10.052Z,1008.09
2018-12-22T18:06:10.115Z,1008.13
2018-12-22T18:07:10.044Z,1008.09
2018-12-22T18:08:10.032Z,1008.12
2018-12-22T18:09:10.014Z,1008.12
2018-12-22T18:10:09.996Z,1008.09
2018-12-22T18:11:10.066Z,1008.14
2018-12-22T18:12:10.017Z,1008.14
2018-12-22T18:13:09.960Z,1008.18
2018-12-22T18:14:09.958Z,1008.21
2018-12-22T18:15:09.940Z,1008.19
2018-12-22T18:16:09.954Z,1008.21
2018-12-22T18:17:09.924Z,1008.20
2018-12-22T18:18:09.930Z,1008.22
2018-12-22T18:19:09.892Z,1008.25
2018-12-22T18:20:09.905Z,1008.26
2018-12-22T18:21:09.881Z,1008.27
2018-12-22T18:22:09.874Z,1008.30
2018-12-22T18:23:09.878Z,1008.30
2018-12-22T18:24:09.852Z,1008.26
2018-12-22T18:25:09.844Z,1008.29
2018-12-22T18:26:09.826Z,1008.30
2018-12-22T18:27:09.826Z,1008.32
2018-12-22T18:28:09.808Z,1008.29
2018-12-22T18:29:09.796Z,1008.29
2018-12-22T18:30:09.772Z,1008.32
2018-12-22T18:31:09.758Z,1008.28
2018-12-22T18:32:09.771Z,1008.31
2018-12-22T18:33:09.731Z,1008.32
2018-12-22T18:34:09.737Z,1008.31
2018-12-22T18:35:09.720Z,1008.29
2018-12-22T18:36:09.712Z,1008.33
2018-12-22T18:37:09.713Z,1008.31
2018-12-22T18:38:09.700Z,1008.31
2018-12-22T18:39:09.675Z,1008.32
2018-12-22T18:40:09.664Z,1008.33
2018-12-22T18:41:09.649Z,1008.33
2018-12-22T18:42:09.673Z,1008.34
2018-12-22T18:43:09.626Z,1008.35
2018-12-22T18:44:09.624Z,1008.37
2018-12-22T18:45:09.616Z,1008.38
2018-12-22T18:46:09.596Z,1008.40
2018-12-22T18:47:09.595Z,1008.42
2018-12-22T18:48:09.661Z,1008.47
2018-12-22T18:49:09.568Z,1008.47
2018-12-22T18:50:09.561Z,1008.47
2018-12-22T18:51:09.547Z,1008.49
2018-12-22T18:52:09.539Z,1008.49
2018-12-22T18:53:09.543Z,1008.52
2018-12-22T18:54:09.530Z,1008.49
2018-12-22T18:55:09.517Z,1008.50
2018-12-22T18:56:09.491Z,1008.51
2018-12-22T18:57:09.484Z,1008.53
2018-12-22T18:58:09.498Z,1008.59
2018-12-22T18:59:09.465Z,1008.55
2018-12-22T19:00:09.453Z,1008.58
2018-12-22T19:01:09.473Z,1008.58
2018-12-22T19:02:09.445Z,1008.63
2018-12-22T19:03:09.449Z,1008.61
2018-12-22T19:04:09.415Z,1008.64
2018-12-22T19:05:09.403Z,1008.61
2018-12-22T19:06:09.401Z,1008.62
2018-12-22T19:07:09.407Z,1008.58
2018-12-22T19:08:09.386Z,1008.56
2018-12-22T19:09:09.377Z,1008.58
2018-12-22T19:10:09.343Z,1008.58
2018-12-22T19:11:09.337Z,1008.59
2018-12-22T19:12:09.322Z,1008.58
2018-12-22T19:13:09.325Z,1008.65
2018-12-22T19:14:09.302Z,1008.64
2018-12-22T19:15:09.289Z,1008.61
2018-12-22T19:16:09.282Z,1008.61
2018-12-22T19:17:09.266Z,1008.60
2018-12-22T19:18:09.279Z,1008.59
2018-12-22T19:19:09.253Z,1008.64
2018-12-22T19:20:09.237Z,1008.66
2018-12-22T19:21:09.525Z,1008.69
2018-12-22T19:22:09.213Z,1008.66
2018-12-22T19:23:09.228Z,1008.66
2018-12-22T19:24:09.201Z,1008.62
2018-12-22T19:25:09.183Z,1008.66
2018-12-22T19:26:09.211Z,1008.64
2018-12-22T19:27:09.162Z,1008.65
2018-12-22T19:28:09.166Z,1008.60
2018-12-22T19:29:09.156Z,1008.65
2018-12-22T19:30:09.128Z,1008.66
2018-12-22T19:31:09.118Z,1008.69
2018-12-22T19:32:09.110Z,1008.70
2018-12-22T19:33:09.099Z,1008.73
2018-12-22T19:34:09.101Z,1008.72
2018-12-22T19:35:09.098Z,1008.74
2018-12-22T19:36:09.102Z,1008.76
2018-12-22T19:37:09.068Z,1008.71
2018-12-22T19:38:09.058Z,1008.74
2018-12-22T19:39:09.042Z,1008.76
2018-12-22T19:40:09.024Z,1008.78
2018-12-22T19:41:09.015Z,1008.84
2018-12-22T19:42:08.995Z,1008.78
2018-12-22T19:43:09.032Z,1008.73
2018-12-22T19:44:09.000Z,1008.76
2018-12-22T19:45:08.992Z,1008.73
2018-12-22T19:46:08.967Z,1008.75
2018-12-22T19:47:08.972Z,1008.78
2018-12-22T19:48:08.930Z,1008.76
2018-12-22T19:49:09.012Z,1008.75
2018-12-22T19:50:08.914Z,1008.75
2018-12-22T19:51:08.934Z,1008.78
2018-12-22T19:52:08.896Z,1008.77
2018-12-22T19:53:08.888Z,1008.77
2018-12-22T19:54:08.901Z,1008.79
2018-12-22T19:55:08.856Z,1008.80
2018-12-22T19:56:08.854Z,1008.79
2018-12-22T19:57:08.837Z,1008.81
2018-12-22T19:58:08.832Z,1008.81
2018-12-22T19:59:08.833Z,1008.81
2018-12-22T20:00:08.807Z,1008.85
2018-12-22T20:01:09.020Z,1008.82
2018-12-22T20:02:08.785Z,1008.85
2018-12-22T20:03:08.822Z,1008.81
2018-12-22T20:04:08.790Z,1008.83
2018-12-22T20:05:08.755Z,1008.78
2018-12-22T20:06:08.737Z,1008.79
2018-12-22T20:07:08.741Z,1008.79
2018-12-22T20:08:08.725Z,1008.79
2018-12-22T20:09:08.865Z,1008.82
2018-12-22T20:10:08.707Z,1008.81
2018-12-22T20:11:08.683Z,1008.78
2018-12-22T20:12:08.727Z,1008.76
2018-12-22T20:13:08.669Z,1008.79
2018-12-22T20:14:08.685Z,1008.77
2018-12-22T20:15:08.648Z,1008.76
2018-12-22T20:16:09.272Z,1008.76
2018-12-22T20:17:08.623Z,1008.79
2018-12-22T20:18:08.627Z,1008.77
2018-12-22T20:19:08.624Z,1008.77
2018-12-22T20:20:08.634Z,1008.78
2018-12-22T20:21:08.583Z,1008.78
2018-12-22T20:22:08.572Z,1008.80
2018-12-22T20:23:08.570Z,1008.79
2018-12-22T20:24:08.566Z,1008.79
2018-12-22T20:25:08.539Z,1008.81
2018-12-22T20:26:08.524Z,1008.86
2018-12-22T20:27:08.525Z,1008.85
2018-12-22T20:28:08.516Z,1008.86
2018-12-22T20:29:08.520Z,1008.85
2018-12-22T20:30:08.481Z,1008.86
2018-12-22T20:31:08.470Z,1008.88
2018-12-22T20:32:08.472Z,1008.83
2018-12-22T20:33:08.444Z,1008.86
2018-12-22T20:34:11.157Z,1008.85
2018-12-22T20:35:08.423Z,1008.86
2018-12-22T20:36:08.416Z,1008.85
2018-12-22T20:37:08.416Z,1008.87
2018-12-22T20:38:08.410Z,1008.90
2018-12-22T20:39:08.451Z,1008.93
2018-12-22T20:40:08.374Z,1008.97
2018-12-22T20:41:08.366Z,1008.97
2018-12-22T20:42:08.345Z,1008.98
2018-12-22T20:43:08.361Z,1008.98
2018-12-22T20:44:08.353Z,1009.00
2018-12-22T20:45:08.328Z,1009.02
2018-12-22T20:46:08.313Z,1009.01
2018-12-22T20:47:08.301Z,1009.01
2018-12-22T20:48:08.294Z,1009.07
2018-12-22T20:49:08.340Z,1009.02
2018-12-22T20:50:08.299Z,1009.05
2018-12-22T20:51:08.262Z,1009.06
2018-12-22T20:52:08.275Z,1009.05
2018-12-22T20:53:08.281Z,1009.05
2018-12-22T20:54:08.274Z,1009.06
2018-12-22T20:55:08.225Z,1009.06
2018-12-22T20:56:08.204Z,1009.08
2018-12-22T20:57:08.189Z,1009.09
2018-12-22T20:58:08.214Z,1009.12
2018-12-22T20:59:08.195Z,1009.13
2018-12-22T21:00:08.174Z,1009.10
2018-12-22T21:01:08.148Z,1009.13
2018-12-22T21:02:08.140Z,1009.10
2018-12-22T21:03:08.138Z,1009.14
2018-12-22T21:04:08.137Z,1009.13
2018-12-22T21:05:08.124Z,1009.13
2018-12-22T21:06:08.108Z,1009.14
2018-12-22T21:07:08.088Z,1009.15
2018-12-22T21:08:08.082Z,1009.09
2018-12-22T21:09:08.073Z,1009.13
2018-12-22T21:10:08.094Z,1009.12
2018-12-22T21:11:08.072Z,1009.13
2018-12-22T21:12:08.049Z,1009.17
2018-12-22T21:13:08.046Z,1009.15
2018-12-22T21:14:08.015Z,1009.19
2018-12-22T21:15:08.031Z,1009.18
2018-12-22T21:16:08.013Z,1009.18
2018-12-22T21:17:07.984Z,1009.19
2018-12-22T21:18:07.971Z,1009.17
2018-12-22T21:19:07.970Z,1009.16
2018-12-22T21:20:07.962Z,1009.21
2018-12-22T21:21:07.943Z,1009.16
2018-12-22T21:22:07.949Z,1009.14
2018-12-22T21:23:07.919Z,1009.12
2018-12-22T21:24:07.906Z,1009.15
2018-12-22T21:25:07.907Z,1009.19
2018-12-22T21:26:07.882Z,1009.19
2018-12-22T21:27:07.865Z,1009.21
2018-12-22T21:28:07.859Z,1009.23
2018-12-22T21:29:07.853Z,1009.27
2018-12-22T21:30:07.865Z,1009.28
2018-12-22T21:31:07.823Z,1009.30
2018-12-22T21:32:07.830Z,1009.28
2018-12-22T21:33:07.820Z,1009.34
2018-12-22T21:34:07.833Z,1009.31
2018-12-22T21:35:07.807Z,1009.30
2018-12-22T21:36:07.787Z,1009.32
2018-12-22T21:37:07.784Z,1009.34
2018-12-22T21:38:07.755Z,1009.31
2018-12-22T21:39:07.747Z,1009.31
2018-12-22T21:40:07.760Z,1009.30
2018-12-22T21:41:07.717Z,1009.35
2018-12-22T21:42:07.716Z,1009.39
2018-12-22T21:43:07.715Z,1009.43
2018-12-22T21:44:07.707Z,1009.42
2018-12-22T21:45:08.759Z,1009.47
2018-12-22T21:46:07.672Z,1009.47
2018-12-22T21:47:07.657Z,1009.46
2018-12-22T21:48:07.662Z,1009.50
2018-12-22T21:49:07.645Z,1009.48
2018-12-22T21:50:07.667Z,1009.47
2018-12-22T21:51:07.629Z,1009.46
2018-12-22T21:52:07.650Z,1009.44
2018-12-22T21:53:07.607Z,1009.45
2018-12-22T21:54:07.619Z,1009.46
2018-12-22T21:55:07.734Z,1009.46
2018-12-22T21:56:07.557Z,1009.56
2018-12-22T21:57:07.551Z,1009.52
2018-12-22T21:58:07.557Z,1009.53
2018-12-22T21:59:07.542Z,1009.56
2018-12-22T22:00:07.535Z,1009.57
2018-12-22T22:01:07.583Z,1009.59
2018-12-22T22:02:07.503Z,1009.62
2018-12-22T22:03:07.497Z,1009.59
2018-12-22T22:04:07.496Z,1009.62
2018-12-22T22:05:07.478Z,1009.62
2018-12-22T22:06:07.459Z,1009.65
2018-12-22T22:07:07.439Z,1009.68
2018-12-22T22:08:07.438Z,1009.69
2018-12-22T22:09:07.445Z,1009.70
2018-12-22T22:10:07.456Z,1009.71
2018-12-22T22:11:07.406Z,1009.70
2018-12-22T22:12:07.392Z,1009.71
2018-12-22T22:13:07.407Z,1009.74
2018-12-22T22:14:07.366Z,1009.71
2018-12-22T22:15:07.373Z,1009.71
2018-12-22T22:16:07.364Z,1009.73
2018-12-22T22:17:07.340Z,1009.71
2018-12-22T22:18:07.325Z,1009.73
2018-12-22T22:19:07.321Z,1009.69
2018-12-22T22:20:07.300Z,1009.72
2018-12-22T22:21:07.315Z,1009.70
2018-12-22T22:22:07.276Z,1009.74
2018-12-22T22:23:07.279Z,1009.77
2018-12-22T22:24:07.273Z,1009.78
2018-12-22T22:25:07.251Z,1009.81
2018-12-22T22:26:07.245Z,1009.75
2018-12-22T22:27:07.221Z,1009.78
2018-12-22T22:28:07.224Z,1009.83
2018-12-22T22:29:07.209Z,1009.82
2018-12-22T22:30:07.221Z,1009.85
2018-12-22T22:31:07.198Z,1009.83
2018-12-22T22:32:07.173Z,1009.84
2018-12-22T22:33:07.160Z,1009.82
2018-12-22T22:34:07.142Z,1009.81
2018-12-22T22:35:07.145Z,1009.79
2018-12-22T22:36:07.347Z,1009.79
2018-12-22T22:37:07.120Z,1009.81
2018-12-22T22:38:07.102Z,1009.80
2018-12-22T22:39:07.092Z,1009.83
2018-12-22T22:40:07.085Z,1009.84
2018-12-22T22:41:07.092Z,1009.85
2018-12-22T22:42:07.068Z,1009.90
2018-12-22T22:43:07.053Z,1009.95
2018-12-22T22:44:07.054Z,1009.93
2018-12-22T22:45:07.030Z,1010.00
2018-12-22T22:46:07.040Z,1009.98
2018-12-22T22:47:07.022Z,1009.99
2018-12-22T22:48:06.997Z,1010.05
2018-12-22T22:49:07.005Z,1010.02
2018-12-22T22:50:06.981Z,1010.03
2018-12-22T22:51:06.973Z,1010.07
2018-12-22T22:52:08.892Z,1010.05
2018-12-22T22:53:06.968Z,1010.08
2018-12-22T22:54:06.942Z,1010.09
2018-12-22T22:55:07.828Z,1010.11
2018-12-22T22:56:07.860Z,1010.13
2018-12-22T22:57:07.831Z,1010.17
2018-12-22T22:58:06.920Z,1010.11
2018-12-22T22:59:06.942Z,1010.13
2018-12-22T23:00:06.896Z,1010.19
2018-12-22T23:01:07.760Z,1010.20
2018-12-22T23:02:06.874Z,1010.23
2018-12-22T23:03:06.852Z,1010.25
2018-12-22T23:04:06.829Z,1010.30
2018-12-22T23:05:06.811Z,1010.30
2018-12-22T23:06:06.804Z,1010.29
2018-12-22T23:07:06.816Z,1010.31
2018-12-22T23:08:06.785Z,1010.31
2018-12-22T23:09:06.775Z,1010.34
2018-12-22T23:10:06.768Z,1010.36
2018-12-22T23:11:06.749Z,1010.42
2018-12-22T23:12:06.757Z,1010.43
2018-12-22T23:13:06.730Z,1010.42
2018-12-22T23:14:06.723Z,1010.39
2018-12-22T23:15:06.762Z,1010.43
2018-12-22T23:16:06.712Z,1010.43
